Time;durP1;ratioP1;P1;durP2;ratioP2;P2;SDS_P1;SDS_P2;PMS_P1;PMS_P2;Temp;Humidity;BMP_temperature;BMP_pressure;BME280_temperature;BME280_humidity;BME280_pressure;Samples;Min_cycle;Max_cycle;Signal;HPM_P1;HPM_P2
2022/10/18 00:01:01;;;;;;;0.00;0.00;;;14.20;99.90;;;;;;5074174;28;20071;-83
2022/10/18 00:03:26;;;;;;;0.00;0.00;;;14.30;99.90;;;;;;5074201;28;20052;-83
2022/10/18 00:05:52;;;;;;;0.00;0.00;;;14.20;99.90;;;;;;5074558;28;20473;-83
2022/10/18 00:08:19;;;;;;;1.00;0.10;;;14.10;99.90;;;;;;5057780;28;20471;-83
2022/10/18 00:10:45;;;;;;;0.10;0.10;;;14.40;99.90;;;;;;5057093;28;20148;-83
2022/10/18 00:13:10;;;;;;;0.00;0.00;;;14.20;99.90;;;;;;5073867;28;20048;-84
2022/10/18 00:15:36;;;;;;;0.65;0.30;;;14.20;99.90;;;;;;5056893;28;20041;-85
2022/10/18 00:18:02;;;;;;;0.10;0.00;;;14.30;99.90;;;;;;5073687;28;20106;-83
2022/10/18 00:20:27;;;;;;;0.00;0.00;;;14.30;99.90;;;;;;5074054;28;20086;-83
2022/10/18 00:22:53;;;;;;;0.10;0.10;;;14.10;99.90;;;;;;5073721;28;20044;-83
2022/10/18 00:25:19;;;;;;;0.00;0.00;;;14.30;99.90;;;;;;5073699;28;20045;-83
2022/10/18 00:27:44;;;;;;;0.45;0.10;;;14.30;99.90;;;;;;5073779;28;20040;-83
2022/10/18 00:30:10;;;;;;;0.20;0.10;;;14.20;99.90;;;;;;5056970;28;20464;-83
2022/10/18 00:32:40;;;;;;;0.15;0.13;;;14.30;99.90;;;;;;5074373;28;20135;-83
2022/10/18 00:35:07;;;;;;;0.00;0.00;;;14.20;99.90;;;;;;5056655;28;20049;-84
2022/10/18 00:37:34;;;;;;;0.00;0.00;;;14.20;99.90;;;;;;5073831;28;20084;-83
2022/10/18 00:40:00;;;;;;;0.00;0.00;;;14.20;99.90;;;;;;5073412;28;20059;-83
2022/10/18 00:42:32;;;;;;;0.90;0.00;;;14.20;99.90;;;;;;5073234;28;20040;-83
2022/10/18 00:45:00;;;;;;;0.10;0.10;;;14.20;99.90;;;;;;5056527;28;20056;-83
2022/10/18 00:47:26;;;;;;;0.00;0.00;;;14.30;99.90;;;;;;5074051;28;20045;-83
2022/10/18 00:49:55;;;;;;;0.00;0.00;;;14.20;99.90;;;;;;5056509;28;20045;-83
2022/10/18 00:52:35;;;;;;;0.00;0.00;;;14.20;99.90;;;;;;5056427;28;20135;-84
2022/10/18 00:55:02;;;;;;;0.20;0.20;;;14.20;99.90;;;;;;5072964;28;20040;-84
2022/10/18 00:57:28;;;;;;;0.32;0.32;;;14.10;99.90;;;;;;5072832;28;20519;-83
2022/10/18 00:59:54;;;;;;;0.00;0.00;;;14.10;99.90;;;;;;5056479;28;20593;-83
2022/10/18 01:02:20;;;;;;;0.30;0.10;;;14.30;99.90;;;;;;5072764;28;20090;-84
2022/10/18 01:04:47;;;;;;;0.00;0.00;;;14.20;99.90;;;;;;5056423;28;20051;-83
2022/10/18 01:07:57;;;;;;;0.00;0.00;;;14.10;99.90;;;;;;5072960;28;20488;-82
2022/10/18 01:11:01;;;;;;;0.00;0.00;;;14.10;99.90;;;;;;5019243;28;20492;-84
2022/10/18 01:13:45;;;;;;;0.00;0.00;;;14.10;99.90;;;;;;5035810;28;20041;-83
2022/10/18 01:16:43;;;;;;;0.00;0.00;;;14.10;99.90;;;;;;5034769;28;20214;-83
2022/10/18 01:19:42;;;;;;;0.00;0.00;;;14.10;99.90;;;;;;5018545;28;20299;-83
2022/10/18 01:22:22;;;;;;;1.65;0.47;;;14.10;99.90;;;;;;5018855;28;20057;-83
2022/10/18 01:25:17;;;;;;;0.00;0.00;;;14.10;99.90;;;;;;5019269;28;20144;-83
2022/10/18 01:28:12;;;;;;;0.08;0.00;;;14.10;99.90;;;;;;5034933;28;20520;-83
2022/10/18 01:30:44;;;;;;;0.00;0.00;;;14.10;99.90;;;;;;5034910;28;20048;-84
2022/10/18 01:33:13;;;;;;;0.17;0.17;;;14.10;99.90;;;;;;5035729;28;20064;-84
2022/10/18 01:35:43;;;;;;;0.00;0.00;;;14.10;99.90;;;;;;5034323;28;20071;-84
2022/10/18 01:38:15;;;;;;;0.20;0.20;;;14.10;99.90;;;;;;5018909;28;20440;-84
2022/10/18 01:40:44;;;;;;;0.10;0.10;;;14.10;99.90;;;;;;5035155;28;20063;-83
2022/10/18 01:43:11;;;;;;;0.00;0.00;;;14.10;99.90;;;;;;5035081;28;20045;-84
2022/10/18 01:45:37;;;;;;;0.03;0.03;;;14.10;99.90;;;;;;5018574;28;20103;-84
2022/10/18 01:48:03;;;;;;;0.00;0.00;;;14.10;99.90;;;;;;5055185;28;20056;-83
2022/10/18 01:50:32;;;;;;;0.00;0.00;;;14.00;99.90;;;;;;5055770;28;20040;-83
2022/10/18 01:52:58;;;;;;;0.00;0.00;;;14.00;99.90;;;;;;5072652;28;20388;-84
2022/10/18 01:55:38;;;;;;;0.00;0.00;;;14.00;99.90;;;;;;5057725;28;20048;-84
2022/10/18 01:58:17;;;;;;;0.00;0.00;;;14.00;99.90;;;;;;5076403;28;20412;-84
2022/10/18 02:00:43;;;;;;;0.00;0.00;;;14.00;99.90;;;;;;5059801;28;20051;-84
2022/10/18 02:03:27;;;;;;;0.10;0.10;;;13.90;99.90;;;;;;5059550;28;20052;-84
2022/10/18 02:06:19;;;;;;;0.00;0.00;;;14.00;99.90;;;;;;5076478;28;20512;-84
2022/10/18 02:09:02;;;;;;;0.00;0.00;;;14.00;99.90;;;;;;5059941;28;20052;-84
2022/10/18 02:11:31;;;;;;;0.00;0.00;;;13.90;99.90;;;;;;5056499;28;20053;-84
2022/10/18 02:14:07;;;;;;;0.00;0.00;;;14.00;99.90;;;;;;5039593;28;20131;-84
2022/10/18 02:16:49;;;;;;;0.00;0.00;;;14.00;99.90;;;;;;5039452;28;20040;-84
2022/10/18 02:19:33;;;;;;;1.13;0.20;;;14.00;99.90;;;;;;5056390;28;20053;-84
2022/10/18 02:21:59;;;;;;;0.52;0.08;;;14.00;99.90;;;;;;5039530;28;20370;-84
2022/10/18 02:24:47;;;;;;;0.00;0.00;;;14.00;99.90;;;;;;5039616;28;20060;-84
2022/10/18 02:27:13;;;;;;;0.00;0.00;;;14.00;99.90;;;;;;5038306;28;20060;-84
2022/10/18 02:29:40;;;;;;;0.00;0.00;;;14.00;99.90;;;;;;5039558;28;20389;-84
2022/10/18 02:32:15;;;;;;;0.00;0.00;;;14.00;99.90;;;;;;5039610;28;20053;-84
2022/10/18 02:34:46;;;;;;;0.00;0.00;;;14.00;99.90;;;;;;5055692;28;20041;-84
2022/10/18 02:37:14;;;;;;;0.00;0.00;;;14.00;99.90;;;;;;5039015;28;20045;-84
2022/10/18 02:39:45;;;;;;;0.00;0.00;;;14.00;99.90;;;;;;5055586;28;20076;-84
2022/10/18 02:42:13;;;;;;;0.00;0.00;;;13.90;99.90;;;;;;5039428;28;20053;-84
2022/10/18 02:44:38;;;;;;;0.05;0.00;;;14.10;99.90;;;;;;5055882;28;20052;-84
2022/10/18 02:47:06;;;;;;;0.43;0.00;;;13.90;99.90;;;;;;5038667;28;20057;-83
2022/10/18 02:49:32;;;;;;;0.00;0.00;;;13.90;99.90;;;;;;5055476;28;20048;-84
2022/10/18 02:51:58;;;;;;;0.00;0.00;;;13.90;99.90;;;;;;5055409;28;20049;-84
2022/10/18 02:54:23;;;;;;;0.00;0.00;;;13.80;99.90;;;;;;5055979;28;20051;-84
2022/10/18 02:56:49;;;;;;;0.00;0.00;;;13.90;99.90;;;;;;5056039;28;20045;-84
2022/10/18 02:59:15;;;;;;;0.00;0.00;;;13.80;99.90;;;;;;5054670;28;20067;-84
2022/10/18 03:01:41;;;;;;;0.00;0.00;;;13.80;99.90;;;;;;5055107;28;20075;-81
2022/10/18 03:04:07;;;;;;;0.00;0.00;;;13.90;99.90;;;;;;5038596;28;20041;-81
2022/10/18 03:06:32;;;;;;;0.13;0.10;;;13.80;99.90;;;;;;5053904;28;20053;-81
2022/10/18 03:09:00;;;;;;;0.00;0.00;;;13.70;99.90;;;;;;5055087;28;20136;-81
2022/10/18 03:11:25;;;;;;;0.00;0.00;;;13.80;99.90;;;;;;5054976;28;20041;-81
2022/10/18 03:13:51;;;;;;;0.08;0.00;;;13.80;99.90;;;;;;5054995;28;20489;-83
2022/10/18 03:16:17;;;;;;;0.00;0.00;;;13.80;99.90;;;;;;5038100;28;20041;-83
2022/10/18 03:18:43;;;;;;;0.00;0.00;;;13.80;99.90;;;;;;5038462;28;20044;-84
2022/10/18 03:21:09;;;;;;;0.00;0.00;;;13.70;99.90;;;;;;5038032;28;20076;-83
2022/10/18 03:23:35;;;;;;;1.75;0.25;;;13.80;99.90;;;;;;5038190;28;20040;-83
2022/10/18 03:26:01;;;;;;;0.00;0.00;;;13.70;99.90;;;;;;5038131;28;20045;-84
2022/10/18 03:28:26;;;;;;;0.32;0.10;;;13.70;99.90;;;;;;5055054;28;20040;-83
2022/10/18 03:30:52;;;;;;;0.00;0.00;;;13.70;99.90;;;;;;5038036;28;20531;-83
2022/10/18 03:33:18;;;;;;;0.00;0.00;;;13.70;99.90;;;;;;5054719;28;20055;-83
2022/10/18 03:35:44;;;;;;;0.00;0.00;;;13.60;99.90;;;;;;5054835;28;20053;-83
2022/10/18 03:38:09;;;;;;;0.00;0.00;;;13.90;99.90;;;;;;5054575;28;20122;-83
2022/10/18 03:40:35;;;;;;;0.00;0.00;;;13.50;99.90;;;;;;5038393;28;20118;-83
2022/10/18 03:43:01;;;;;;;0.00;0.00;;;13.60;99.90;;;;;;5037783;28;20482;-83
2022/10/18 03:45:27;;;;;;;0.17;0.13;;;13.70;99.90;;;;;;5054477;28;20044;-83
2022/10/18 03:47:52;;;;;;;0.00;0.00;;;13.50;99.90;;;;;;5054413;28;20052;-83
2022/10/18 03:50:19;;;;;;;0.00;0.00;;;13.40;99.90;;;;;;5055088;28;20045;-84
2022/10/18 03:52:45;;;;;;;0.00;0.00;;;13.40;99.90;;;;;;5038186;28;20793;-84
2022/10/18 03:55:10;;;;;;;0.00;0.00;;;13.40;99.90;;;;;;5037420;28;20437;-83
2022/10/18 03:57:36;;;;;;;0.10;0.10;;;13.20;99.90;;;;;;5053969;28;20053;-84
2022/10/18 04:00:03;;;;;;;0.03;0.00;;;13.30;99.90;;;;;;5054294;28;20061;-84
2022/10/18 04:02:28;;;;;;;0.00;0.00;;;13.30;99.90;;;;;;5053875;28;20124;-83
2022/10/18 04:04:54;;;;;;;0.40;0.20;;;13.50;99.90;;;;;;5053977;28;20517;-84
2022/10/18 04:07:20;;;;;;;0.00;0.00;;;13.30;99.90;;;;;;5053974;28;20095;-84
2022/10/18 04:09:45;;;;;;;0.30;0.10;;;13.30;99.90;;;;;;5053901;28;20392;-84
2022/10/18 04:12:11;;;;;;;0.00;0.00;;;13.30;99.90;;;;;;5053924;28;20048;-84
2022/10/18 04:14:36;;;;;;;0.13;0.00;;;13.30;99.90;;;;;;5037513;28;20137;-85
2022/10/18 04:17:03;;;;;;;0.00;0.00;;;13.20;99.90;;;;;;5037187;28;20049;-85
2022/10/18 04:19:29;;;;;;;0.10;0.10;;;13.20;99.90;;;;;;5052784;28;20049;-86
2022/10/18 04:21:55;;;;;;;0.00;0.00;;;13.10;99.90;;;;;;5037066;28;20071;-85
2022/10/18 04:24:20;;;;;;;2.67;0.35;;;13.10;99.90;;;;;;5037214;28;20045;-85
2022/10/18 04:26:46;;;;;;;0.00;0.00;;;13.10;99.90;;;;;;5053738;28;20427;-85
2022/10/18 04:29:12;;;;;;;1.73;0.32;;;13.10;99.90;;;;;;5036852;28;20052;-86
2022/10/18 04:31:37;;;;;;;0.00;0.00;;;13.10;99.90;;;;;;5037174;28;20049;-85
2022/10/18 04:34:03;;;;;;;0.00;0.00;;;13.10;99.90;;;;;;5053411;28;20477;-86
2022/10/18 04:36:29;;;;;;;0.00;0.00;;;13.10;99.90;;;;;;5036335;28;20045;-87
2022/10/18 04:38:55;;;;;;;0.00;0.00;;;13.10;99.90;;;;;;5053065;28;20079;-85
2022/10/18 04:41:21;;;;;;;0.00;0.00;;;13.10;99.90;;;;;;5036757;28;20084;-87
2022/10/18 04:43:46;;;;;;;0.00;0.00;;;13.10;99.90;;;;;;5036691;28;20053;-87
2022/10/18 04:46:12;;;;;;;0.00;0.00;;;13.20;99.90;;;;;;5053135;28;20078;-85
2022/10/18 04:48:38;;;;;;;0.00;0.00;;;13.20;99.90;;;;;;5036653;28;20048;-85
2022/10/18 04:51:04;;;;;;;0.00;0.00;;;13.10;99.90;;;;;;5036225;28;20053;-84
2022/10/18 04:53:30;;;;;;;0.00;0.00;;;13.00;99.90;;;;;;5036525;28;20060;-84
2022/10/18 04:55:56;;;;;;;0.52;0.25;;;13.00;99.90;;;;;;5036017;28;20045;-83
2022/10/18 04:58:22;;;;;;;0.00;0.00;;;13.20;99.90;;;;;;5019769;28;20045;-84
2022/10/18 05:00:48;;;;;;;0.00;0.00;;;13.30;99.90;;;;;;5053184;28;20053;-86
2022/10/18 05:03:14;;;;;;;0.00;0.00;;;13.30;99.90;;;;;;5036217;28;20556;-86
2022/10/18 05:05:40;;;;;;;0.00;0.00;;;13.00;99.90;;;;;;5052927;28;20099;-86
2022/10/18 05:08:06;;;;;;;0.03;0.00;;;13.50;99.90;;;;;;5036386;28;20080;-85
2022/10/18 05:10:32;;;;;;;0.05;0.00;;;13.00;99.90;;;;;;5036384;28;20083;-86
2022/10/18 05:12:57;;;;;;;0.00;0.00;;;13.10;99.90;;;;;;5052846;28;20041;-86
2022/10/18 05:15:23;;;;;;;0.00;0.00;;;13.00;99.90;;;;;;5052736;28;20378;-86
2022/10/18 05:17:49;;;;;;;0.20;0.10;;;13.20;99.90;;;;;;5036228;28;20080;-86
2022/10/18 05:20:15;;;;;;;0.00;0.00;;;13.00;99.90;;;;;;5052755;28;20037;-85
2022/10/18 05:22:40;;;;;;;0.00;0.00;;;13.00;99.90;;;;;;5052766;28;20037;-86
2022/10/18 05:25:07;;;;;;;0.00;0.00;;;13.00;99.90;;;;;;5036172;28;20386;-86
2022/10/18 05:27:33;;;;;;;0.00;0.00;;;13.00;99.90;;;;;;5052722;28;20477;-86
2022/10/18 05:29:59;;;;;;;0.00;0.00;;;13.00;99.90;;;;;;5051957;28;20044;-86
2022/10/18 05:32:25;;;;;;;0.10;0.10;;;12.90;99.90;;;;;;5052644;28;20041;-86
2022/10/18 05:34:50;;;;;;;0.00;0.00;;;13.10;99.90;;;;;;5035949;28;20128;-86
2022/10/18 05:37:16;;;;;;;0.28;0.28;;;13.10;99.90;;;;;;5036005;28;20045;-86
2022/10/18 05:39:41;;;;;;;0.00;0.00;;;13.00;99.90;;;;;;5052837;28;20527;-86
2022/10/18 05:42:07;;;;;;;0.00;0.00;;;13.00;99.90;;;;;;5035735;28;20056;-86
2022/10/18 05:44:33;;;;;;;0.00;0.00;;;13.00;99.90;;;;;;5035974;28;20120;-86
2022/10/18 05:46:59;;;;;;;0.00;0.00;;;13.00;99.90;;;;;;5035686;28;20045;-86
2022/10/18 05:49:24;;;;;;;0.00;0.00;;;12.90;99.90;;;;;;5036228;28;20080;-86
2022/10/18 05:51:50;;;;;;;0.00;0.00;;;12.90;99.90;;;;;;5052462;28;20083;-86
2022/10/18 05:54:16;;;;;;;0.00;0.00;;;12.90;99.90;;;;;;5036201;28;20037;-86
2022/10/18 05:56:41;;;;;;;0.05;0.00;;;12.90;99.90;;;;;;5035443;28;20044;-85
2022/10/18 05:59:10;;;;;;;0.00;0.00;;;12.90;99.90;;;;;;5035501;28;20143;-85
2022/10/18 06:01:37;;;;;;;0.00;0.00;;;12.60;99.90;;;;;;5053251;28;20208;-86
2022/10/18 06:04:03;;;;;;;0.00;0.00;;;12.90;99.90;;;;;;5035765;28;20052;-86
2022/10/18 06:06:30;;;;;;;0.00;0.00;;;12.80;99.90;;;;;;5035791;28;20095;-86
2022/10/18 06:08:56;;;;;;;0.00;0.00;;;12.80;99.90;;;;;;5035756;28;20144;-85
2022/10/18 06:11:21;;;;;;;0.20;0.00;;;12.70;99.90;;;;;;5036049;28;20132;-85
2022/10/18 06:13:49;;;;;;;0.00;0.00;;;12.70;99.90;;;;;;5035846;28;20044;-85
2022/10/18 06:16:17;;;;;;;0.00;0.00;;;12.70;99.90;;;;;;5035404;28;20044;-85
2022/10/18 06:18:48;;;;;;;0.00;0.00;;;12.80;99.90;;;;;;5035680;28;20484;-85
2022/10/18 06:21:13;;;;;;;0.00;0.00;;;12.70;99.90;;;;;;5052420;28;20056;-85
2022/10/18 06:23:39;;;;;;;0.00;0.00;;;12.80;99.90;;;;;;5036512;28;20413;-86
2022/10/18 06:26:09;;;;;;;0.00;0.00;;;12.70;99.90;;;;;;5052262;28;20052;-85
2022/10/18 06:28:36;;;;;;;0.00;0.00;;;12.70;99.90;;;;;;5035530;28;20053;-85
2022/10/18 06:31:02;;;;;;;0.10;0.00;;;12.90;99.90;;;;;;5052318;28;20048;-85
2022/10/18 06:33:30;;;;;;;0.00;0.00;;;12.60;99.90;;;;;;5035689;28;20056;-85
2022/10/18 06:36:00;;;;;;;0.70;0.15;;;12.50;99.90;;;;;;5052059;28;20036;-85
2022/10/18 06:38:27;;;;;;;0.73;0.20;;;13.00;99.90;;;;;;5035439;28;20110;-85
2022/10/18 06:40:54;;;;;;;0.00;0.00;;;12.70;99.90;;;;;;5052435;28;20094;-85
2022/10/18 06:43:20;;;;;;;0.00;0.00;;;12.80;99.90;;;;;;5055566;28;20427;-85
2022/10/18 06:45:46;;;;;;;0.32;0.32;;;12.60;99.90;;;;;;5056394;28;20049;-85
2022/10/18 06:48:12;;;;;;;0.00;0.00;;;12.50;99.90;;;;;;5055635;28;20388;-85
2022/10/18 06:50:37;;;;;;;0.00;0.00;;;12.90;99.90;;;;;;5055407;28;20103;-86
2022/10/18 06:53:07;;;;;;;0.32;0.32;;;12.30;99.90;;;;;;5055690;28;20481;-85
2022/10/18 06:55:33;;;;;;;0.00;0.00;;;12.40;99.90;;;;;;5038580;28;20114;-85
2022/10/18 06:57:59;;;;;;;0.00;0.00;;;12.40;99.90;;;;;;5055129;28;20060;-86
2022/10/18 07:00:25;;;;;;;0.00;0.00;;;12.40;99.90;;;;;;5054981;28;20049;-86
2022/10/18 07:02:50;;;;;;;0.00;0.00;;;12.30;99.90;;;;;;5038806;28;20049;-85
2022/10/18 07:05:16;;;;;;;0.68;0.00;;;12.40;99.90;;;;;;5038967;28;20045;-84
2022/10/18 07:07:42;;;;;;;0.00;0.00;;;12.40;99.90;;;;;;5038576;28;20045;-84
2022/10/18 07:10:08;;;;;;;0.00;0.00;;;12.40;99.90;;;;;;5038316;28;20139;-84
2022/10/18 07:12:33;;;;;;;0.00;0.00;;;12.40;99.90;;;;;;5054956;28;20045;-83
2022/10/18 07:14:59;;;;;;;0.00;0.00;;;12.50;99.90;;;;;;5054946;28;20341;-84
2022/10/18 07:17:25;;;;;;;0.00;0.00;;;12.50;99.90;;;;;;5054972;28;20048;-84
2022/10/18 07:19:51;;;;;;;0.00;0.00;;;12.50;99.90;;;;;;5038396;28;20045;-84
2022/10/18 07:22:16;;;;;;;0.00;0.00;;;12.50;99.90;;;;;;5038330;28;20063;-84
2022/10/18 07:24:42;;;;;;;0.00;0.00;;;12.50;99.90;;;;;;5038213;28;20049;-84
2022/10/18 07:27:08;;;;;;;0.00;0.00;;;12.50;99.90;;;;;;5054777;28;20044;-85
2022/10/18 07:29:36;;;;;;;0.00;0.00;;;12.60;99.90;;;;;;5054829;28;20098;-84
2022/10/18 07:32:03;;;;;;;0.05;0.05;;;12.60;99.90;;;;;;5038030;28;20052;-84
2022/10/18 07:34:29;;;;;;;0.00;0.00;;;12.60;99.90;;;;;;5054562;28;20049;-84
2022/10/18 07:36:54;;;;;;;0.00;0.00;;;12.70;99.90;;;;;;5038071;28;20451;-84
2022/10/18 07:39:20;;;;;;;0.00;0.00;;;12.50;99.90;;;;;;5037980;28;20049;-85
2022/10/18 07:41:46;;;;;;;0.00;0.00;;;12.60;99.90;;;;;;5054393;28;20551;-86
2022/10/18 07:44:11;;;;;;;0.00;0.00;;;12.80;99.90;;;;;;5038515;28;20098;-85
2022/10/18 07:46:37;;;;;;;0.00;0.00;;;12.60;99.90;;;;;;5038572;28;20405;-86
2022/10/18 07:49:03;;;;;;;0.00;0.00;;;12.90;99.90;;;;;;5038188;28;20048;-85
2022/10/18 07:51:31;;;;;;;0.00;0.00;;;12.90;99.90;;;;;;5037726;28;20044;-85
2022/10/18 07:54:00;;;;;;;0.10;0.10;;;12.70;99.90;;;;;;5053474;28;20436;-85
2022/10/18 07:56:26;;;;;;;0.00;0.00;;;12.80;99.90;;;;;;5037358;28;20040;-86
2022/10/18 07:58:54;;;;;;;0.00;0.00;;;12.80;99.90;;;;;;5053511;28;20061;-85
2022/10/18 08:01:22;;;;;;;0.00;0.00;;;12.90;99.90;;;;;;5054595;28;20419;-85
2022/10/18 08:03:48;;;;;;;0.00;0.00;;;13.00;99.90;;;;;;5037457;28;20037;-85
2022/10/18 08:06:17;;;;;;;0.03;0.03;;;13.00;99.90;;;;;;5053819;28;20053;-86
2022/10/18 08:08:43;;;;;;;0.00;0.00;;;13.00;99.90;;;;;;5037231;28;20045;-85
2022/10/18 08:11:15;;;;;;;0.00;0.00;;;13.00;99.90;;;;;;5037590;28;20460;-86
2022/10/18 08:13:42;;;;;;;0.00;0.00;;;13.10;99.90;;;;;;5054387;28;20080;-86
2022/10/18 08:16:13;;;;;;;0.00;0.00;;;13.20;99.90;;;;;;5053597;28;20099;-86
2022/10/18 08:18:39;;;;;;;0.00;0.00;;;13.20;99.90;;;;;;5037363;28;20045;-87
2022/10/18 08:21:08;;;;;;;0.00;0.00;;;13.10;99.90;;;;;;5053793;28;20049;-87
2022/10/18 08:23:35;;;;;;;0.00;0.00;;;13.20;99.90;;;;;;5037066;28;20482;-87
2022/10/18 08:26:09;;;;;;;0.03;0.03;;;13.30;99.90;;;;;;5037180;28;20049;-87
2022/10/18 08:28:35;;;;;;;0.00;0.00;;;13.30;99.90;;;;;;5037670;28;20148;-86
2022/10/18 08:31:06;;;;;;;0.00;0.00;;;13.00;99.90;;;;;;5053682;28;20045;-87
2022/10/18 08:33:32;;;;;;;0.25;0.10;;;13.40;99.90;;;;;;5036966;28;20053;-88
2022/10/18 08:36:00;;;;;;;0.00;0.00;;;13.00;99.90;;;;;;5053030;28;20052;-87
2022/10/18 08:38:30;;;;;;;0.00;0.00;;;13.20;99.90;;;;;;5053511;28;20045;-86
2022/10/18 08:40:57;;;;;;;0.00;0.00;;;13.60;99.90;;;;;;5053177;28;20053;-85
2022/10/18 08:43:28;;;;;;;0.00;0.00;;;13.60;99.90;;;;;;5053501;28;20106;-84
2022/10/18 08:45:54;;;;;;;0.00;0.00;;;13.80;99.90;;;;;;5053384;28;20053;-86
2022/10/18 08:48:31;;;;;;;0.00;0.00;;;13.80;99.90;;;;;;5052496;28;20049;-85
2022/10/18 08:50:57;;;;;;;0.00;0.00;;;13.80;99.90;;;;;;5053779;28;20148;-85
2022/10/18 08:53:39;;;;;;;0.00;0.00;;;13.90;99.90;;;;;;5036565;28;20534;-85
2022/10/18 08:56:14;;;;;;;0.00;0.00;;;13.90;99.90;;;;;;5036695;28;20132;-85
2022/10/18 08:58:45;;;;;;;0.00;0.00;;;13.90;99.90;;;;;;5052521;28;20182;-85
2022/10/18 09:01:30;;;;;;;0.10;0.10;;;14.00;99.90;;;;;;5053695;28;20044;-85
2022/10/18 09:04:15;;;;;;;0.00;0.00;;;13.90;99.90;;;;;;5052980;28;20052;-85
2022/10/18 09:07:06;;;;;;;0.00;0.00;;;13.90;99.90;;;;;;5036358;28;20041;-85
2022/10/18 09:09:51;;;;;;;0.00;0.00;;;13.90;99.90;;;;;;5053183;28;20045;-84
2022/10/18 09:12:20;;;;;;;0.00;0.00;;;13.80;99.90;;;;;;5036435;28;20131;-84
2022/10/18 09:14:51;;;;;;;0.13;0.13;;;13.80;99.90;;;;;;5035914;28;20493;-84
2022/10/18 09:17:36;;;;;;;0.00;0.00;;;13.70;99.90;;;;;;5036226;28;20119;-84
2022/10/18 09:20:21;;;;;;;0.00;0.00;;;13.80;99.90;;;;;;5052941;28;20112;-84
2022/10/18 09:22:53;;;;;;;;;;;13.80;99.90;;;;;;5036569;28;20052;-84
2022/10/18 09:25:48;;;;;;;0.00;0.00;;;13.90;99.90;;;;;;5052916;28;20327;-84
2022/10/18 09:28:50;;;;;;;0.00;0.00;;;13.90;99.90;;;;;;5052248;28;20060;-85
2022/10/18 09:31:30;;;;;;;0.00;0.00;;;13.90;99.90;;;;;;5036497;28;20114;-84
2022/10/18 09:33:57;;;;;;;0.00;0.00;;;13.90;99.90;;;;;;5052566;28;20082;-84
2022/10/18 09:36:26;;;;;;;0.00;0.00;;;13.90;99.90;;;;;;5035643;28;20564;-84
2022/10/18 09:38:57;;;;;;;0.00;0.00;;;14.00;99.90;;;;;;5052591;28;20663;-87
2022/10/18 09:41:29;;;;;;;0.00;0.00;;;14.10;99.90;;;;;;5036110;28;20067;-84
2022/10/18 09:44:09;;;;;;;0.00;0.00;;;14.20;99.90;;;;;;5036000;28;20052;-84
2022/10/18 09:46:42;;;;;;;0.00;0.00;;;14.30;99.90;;;;;;5037261;28;20071;-84
2022/10/18 09:49:26;;;;;;;0.00;0.00;;;14.60;99.90;;;;;;5063357;28;20048;-84
2022/10/18 09:51:53;;;;;;;0.00;0.00;;;14.80;99.90;;;;;;5055708;28;20480;-84
2022/10/18 09:54:22;;;;;;;0.00;0.00;;;15.40;99.90;;;;;;5037475;28;20084;-84
2022/10/18 09:56:55;;;;;;;0.00;0.00;;;15.80;99.90;;;;;;5051867;28;20132;-84
2022/10/18 09:59:42;;;;;;;0.68;0.50;;;15.80;99.90;;;;;;5035138;28;20056;-83
2022/10/18 10:02:20;;;;;;;0.00;0.00;;;15.80;99.90;;;;;;5036287;28;20052;-83
2022/10/18 10:04:47;;;;;;;0.00;0.00;;;15.80;99.90;;;;;;5035852;28;20048;-84
2022/10/18 10:07:17;;;;;;;0.00;0.00;;;16.20;99.90;;;;;;5035795;28;20397;-84
2022/10/18 10:09:46;;;;;;;0.00;0.00;;;16.50;99.90;;;;;;5035694;28;20049;-84
2022/10/18 10:12:32;;;;;;;0.00;0.00;;;16.70;99.90;;;;;;5052870;28;20037;-84
2022/10/18 10:15:24;;;;;;;0.08;0.08;;;16.90;99.90;;;;;;5035709;28;20396;-84
2022/10/18 10:18:05;;;;;;;0.10;0.10;;;17.30;99.90;;;;;;5055873;28;20052;-83
2022/10/18 10:20:40;;;;;;;0.15;0.10;;;17.50;99.90;;;;;;5056012;28;20519;-84
2022/10/18 10:23:27;;;;;;;1.23;0.35;;;17.70;99.90;;;;;;5039774;28;20049;-84
2022/10/18 10:26:02;;;;;;;0.45;0.30;;;17.70;99.90;;;;;;5038792;28;20061;-84
2022/10/18 10:28:31;;;;;;;0.00;0.00;;;17.90;99.90;;;;;;5056252;28;20080;-84
2022/10/18 10:31:25;;;;;;;0.00;0.00;;;17.90;99.90;;;;;;5038941;28;20053;-85
2022/10/18 10:34:02;;;;;;;1.17;0.32;;;17.90;99.90;;;;;;5038817;28;20575;-84
2022/10/18 10:36:30;;;;;;;0.00;0.00;;;18.00;99.90;;;;;;5055270;28;20045;-83
2022/10/18 10:39:17;;;;;;;0.00;0.00;;;18.10;99.90;;;;;;5055736;28;20048;-84
2022/10/18 10:41:55;;;;;;;0.20;0.20;;;18.10;99.90;;;;;;5056585;28;20416;-85
2022/10/18 10:44:29;;;;;;;2.65;0.55;;;18.10;99.90;;;;;;5039047;28;20047;-85
2022/10/18 10:46:55;;;;;;;0.05;0.05;;;18.30;99.90;;;;;;5055629;28;20061;-85
2022/10/18 10:49:45;;;;;;;0.10;0.05;;;18.30;99.90;;;;;;5055435;28;20098;-85
2022/10/18 10:52:23;;;;;;;0.00;0.00;;;18.20;99.90;;;;;;5055375;28;20099;-85
2022/10/18 10:54:49;;;;;;;1.65;0.40;;;18.20;99.90;;;;;;5055328;28;20052;-85
2022/10/18 10:57:15;;;;;;;0.00;0.00;;;18.20;99.90;;;;;;5055447;28;20057;-85
2022/10/18 10:59:46;;;;;;;0.10;0.10;;;18.10;99.90;;;;;;5038241;28;20144;-85
2022/10/18 11:02:16;;;;;;;0.32;0.10;;;18.10;99.90;;;;;;5055381;28;20048;-85
2022/10/18 11:04:43;;;;;;;0.00;0.00;;;18.20;99.90;;;;;;5038638;28;20052;-85
2022/10/18 11:07:26;;;;;;;0.00;0.00;;;18.10;99.90;;;;;;5038507;28;20049;-85
2022/10/18 11:10:10;;;;;;;0.00;0.00;;;18.20;99.90;;;;;;5038562;28;20049;-85
2022/10/18 11:12:50;;;;;;;0.15;0.15;;;18.20;99.90;;;;;;5068824;28;20445;-85
2022/10/18 11:15:22;;;;;;;0.00;0.00;;;18.20;99.90;;;;;;5075115;28;20044;-85
2022/10/18 11:18:05;;;;;;;0.20;0.00;;;18.30;99.90;;;;;;5058778;28;20048;-85
2022/10/18 11:20:54;;;;;;;0.00;0.00;;;18.30;99.90;;;;;;5058583;28;20165;-85
2022/10/18 11:23:24;;;;;;;0.00;0.00;;;18.10;99.90;;;;;;5058676;28;20045;-85
2022/10/18 11:25:55;;;;;;;0.00;0.00;;;18.10;99.90;;;;;;5058228;28;20075;-85
2022/10/18 11:28:42;;;;;;;0.00;0.00;;;17.90;99.90;;;;;;5057110;28;20052;-85
2022/10/18 11:31:26;;;;;;;0.00;0.00;;;17.80;99.90;;;;;;5057796;28;20400;-85
2022/10/18 11:34:22;;;;;;;1.87;0.67;;;17.80;99.90;;;;;;5075018;28;20041;-85
2022/10/18 11:37:23;;;;;;;0.00;0.00;;;18.00;99.90;;;;;;5057436;28;20547;-85
2022/10/18 11:40:30;;;;;;;0.00;0.00;;;18.30;99.90;;;;;;5074910;28;20515;-86
2022/10/18 11:43:18;;;;;;;0.10;0.10;;;18.30;99.90;;;;;;5017097;28;20085;-85
2022/10/18 11:46:05;;;;;;;4.68;0.75;;;18.40;99.90;;;;;;5017200;28;20045;-86
2022/10/18 11:48:52;;;;;;;0.00;0.00;;;18.40;99.90;;;;;;5017141;28;20053;-85
2022/10/18 11:51:18;;;;;;;0.00;0.00;;;18.50;99.90;;;;;;5016791;28;20046;-86
2022/10/18 11:53:59;;;;;;;0.00;0.00;;;18.70;99.90;;;;;;5016721;28;20080;-87
2022/10/18 11:56:38;;;;;;;0.00;0.00;;;18.80;99.90;;;;;;5015244;28;20715;-85
2022/10/18 11:59:18;;;;;;;0.10;0.10;;;19.10;99.90;;;;;;5016582;28;20089;-90
2022/10/18 12:02:02;;;;;;;0.03;0.03;;;19.50;99.90;;;;;;5017029;28;20229;-87
2022/10/18 12:04:38;;;;;;;0.00;0.00;;;19.80;99.90;;;;;;5016095;28;20045;-88
2022/10/18 12:07:06;;;;;;;0.00;0.00;;;20.20;99.90;;;;;;5016917;28;20085;-87
2022/10/18 12:09:37;;;;;;;0.20;0.20;;;20.60;99.90;;;;;;5016493;28;20497;-89
2022/10/18 12:12:26;;;;;;;0.05;0.05;;;20.80;99.90;;;;;;5017008;28;20053;-91
2022/10/18 12:14:56;;;;;;;0.00;0.00;;;21.10;99.90;;;;;;5016864;28;20383;-89
2022/10/18 12:17:30;;;;;;;0.20;0.10;;;20.90;99.90;;;;;;5016408;28;20041;-90
2022/10/18 12:20:10;;;;;;;0.47;0.17;;;20.80;99.90;;;;;;5042089;28;20053;-88
2022/10/18 12:22:51;;;;;;;0.00;0.00;;;20.80;99.90;;;;;;5074000;28;20041;-90
2022/10/18 12:25:18;;;;;;;0.00;0.00;;;20.70;99.90;;;;;;5057171;28;20064;-86
2022/10/18 12:27:58;;;;;;;1.17;0.35;;;20.70;99.90;;;;;;5074285;28;20050;-91
2022/10/18 12:30:30;;;;;;;0.52;0.08;;;20.60;99.90;;;;;;5073646;28;20048;-89
2022/10/18 12:33:10;;;;;;;0.10;0.10;;;20.50;99.90;;;;;;5073623;28;20080;-87
2022/10/18 12:36:01;;;;;;;0.00;0.00;;;20.40;99.90;;;;;;5056442;28;20499;-88
2022/10/18 12:38:30;;;;;;;0.00;0.00;;;20.20;99.90;;;;;;5073515;28;20044;-88
2022/10/18 12:40:57;;;;;;;8.30;0.55;;;20.00;99.90;;;;;;5073330;28;20040;-89
2022/10/18 12:43:25;;;;;;;0.00;0.00;;;19.80;99.90;;;;;;5058345;28;20059;-90
2022/10/18 12:45:57;;;;;;;0.13;0.10;;;19.60;99.90;;;;;;5061045;28;20488;-88
2022/10/18 12:48:41;;;;;;;0.10;0.10;;;19.50;99.90;;;;;;5076331;28;20048;-87
2022/10/18 12:51:14;;;;;;;0.00;0.00;;;19.40;99.90;;;;;;5056752;28;20369;-88
2022/10/18 12:53:43;;;;;;;0.00;0.00;;;19.30;99.90;;;;;;5056760;28;20052;-88
2022/10/18 12:56:27;;;;;;;0.00;0.00;;;19.30;99.90;;;;;;5072758;28;20396;-87
2022/10/18 12:59:13;;;;;;;1.00;0.50;;;19.20;99.90;;;;;;5072822;28;20053;-87
2022/10/18 13:01:54;;;;;;;0.00;0.00;;;19.20;99.90;;;;;;5032102;28;20049;-88
2022/10/18 13:04:31;;;;;;;0.20;0.20;;;19.00;99.90;;;;;;5014857;28;20053;-88
2022/10/18 13:07:01;;;;;;;0.00;0.00;;;18.80;99.90;;;;;;5015263;28;20521;-87
2022/10/18 13:09:34;;;;;;;1.40;0.35;;;18.60;99.90;;;;;;5015155;28;20050;-87